Main page
METAR-TAF:

METAR-TAF

Airports :

Rivolto Air Base

Udine, Italy

latitude: 45-59N, longitude: 013-02E, elevation: 51 m

Current weather observation

The report was made 1 hour and 5 minutes ago, at 21:55 UTC
Temperature 5°C
Humidity 75%
Pressure 1010 hPa
Visibility 10 km or more
Broken clouds at a height of 4000 ft
Broken clouds at a height of 4800 ft

METAR: LIPI 192155Z /////KT 9999 BKN040 BKN048 05/01 Q1010 RMK OVC VIS MIN 9999 WIND THR06 05020KT WIND THR24 05018KT BLU

Time: 00:00 (23:00 UTC)

Forecast

The report was made 9 hours and 0 minutes ago, at 14:00 UTC
Forecast valid from 19 at 15 UTC to 19 at 24 UTC
Wind 10 kt from the East/Northeast
Visibility 10 km or more
Few clouds at a height of 5000 ft
Scattered clouds at a height of 8000 ft
Becoming
from 19 at 22 UTC to 19 at 24 UTC
Visibility: 8000 m
Few clouds at a height of 3000 ft
Scattered clouds at a height of 6000 ft
rain

TAF: LIPI 191400Z 1915/1924 07010KT 9999 FEW050 SCT080 BECMG 1922/1924 8000 RA FEW030 SCT060

Weather observations and forecasts of more than 4000 airports (METAR and TAF reports).

The available stations are represented by yellow and red dots on the map.

Hover mouse over dot to see the name of the station.

Then click to see weather observations and forecasts.

To change the map : click on the green buttons with a black cross to zoom in, on the green button with a dash to zoom out, or on the green arrows for adjacent maps.


METAR-TAF: